Time;durP1;ratioP1;P1;durP2;ratioP2;P2;SDS_P1;SDS_P2;PMS_P1;PMS_P2;Temp;Humidity;BMP_temperature;BMP_pressure;BME280_temperature;BME280_humidity;BME280_pressure;Samples;Min_cycle;Max_cycle;Signal;HPM_P1;HPM_P2
2023/12/19 00:01:52;;;;;;;16.00;11.33;;;1.00;99.90;;;;;;5092731;28;20202;-62
2023/12/19 00:04:19;;;;;;;18.03;10.77;;;1.00;99.90;;;;;;5092793;28;20250;-62
2023/12/19 00:06:46;;;;;;;18.33;10.63;;;1.10;99.90;;;;;;5070644;28;20227;-62
2023/12/19 00:09:13;;;;;;;27.37;10.77;;;1.00;99.90;;;;;;5074129;28;20244;-62
2023/12/19 00:11:41;;;;;;;40.17;12.87;;;1.00;99.90;;;;;;5092305;28;20201;-62
2023/12/19 00:14:08;;;;;;;21.60;10.40;;;0.90;99.90;;;;;;5089633;28;20195;-62
2023/12/19 00:16:37;;;;;;;19.87;10.47;;;0.80;99.90;;;;;;5112621;22;20318;-67
2023/12/19 00:19:08;;;;;;;36.47;10.50;;;0.80;99.90;;;;;;5067804;28;20199;-66
2023/12/19 00:21:35;;;;;;;23.63;10.63;;;0.80;99.90;;;;;;5070775;28;20973;-66
2023/12/19 00:24:02;;;;;;;24.30;9.83;;;0.70;99.90;;;;;;5070747;28;20256;-66
2023/12/19 00:26:29;;;;;;;23.83;12.03;;;0.60;99.90;;;;;;5068417;28;20210;-67
2023/12/19 00:28:56;;;;;;;13.00;9.53;;;0.60;99.90;;;;;;5060794;28;20199;-67
2023/12/19 00:31:23;;;;;;;16.17;9.83;;;0.60;99.90;;;;;;5050662;28;20206;-67
2023/12/19 00:33:50;;;;;;;22.70;10.90;;;0.70;99.90;;;;;;5050764;28;20261;-66
2023/12/19 00:36:23;;;;;;;19.00;10.03;;;0.60;99.90;;;;;;5049610;28;20196;-66
2023/12/19 00:38:50;;;;;;;35.83;11.80;;;0.70;99.90;;;;;;5050201;28;20197;-67
2023/12/19 00:41:18;;;;;;;22.10;10.37;;;0.60;99.90;;;;;;5048361;28;20230;-66
2023/12/19 00:43:45;;;;;;;29.23;12.17;;;0.60;99.90;;;;;;5049669;28;20288;-66
2023/12/19 00:46:13;;;;;;;29.60;12.33;;;0.60;99.90;;;;;;5050453;28;20232;-66
2023/12/19 00:48:40;;;;;;;12.93;9.40;;;0.60;99.90;;;;;;5049103;28;20250;-67
2023/12/19 00:51:10;;;;;;;37.43;12.40;;;0.60;99.90;;;;;;5040685;28;20674;-66
2023/12/19 00:53:40;;;;;;;46.80;13.70;;;0.50;99.90;;;;;;5050355;28;20248;-66
2023/12/19 00:56:08;;;;;;;38.50;10.77;;;0.30;99.90;;;;;;5045608;28;20207;-65
2023/12/19 00:58:36;;;;;;;30.63;11.43;;;0.20;99.90;;;;;;5047312;28;20232;-66
2023/12/19 01:01:03;;;;;;;53.10;11.77;;;0.20;99.90;;;;;;5050425;28;20258;-66
2023/12/19 01:03:30;;;;;;;44.40;11.23;;;0.10;99.90;;;;;;5050582;28;20199;-66
2023/12/19 01:05:57;;;;;;;39.37;10.67;;;0.00;99.90;;;;;;5052174;28;20729;-66
2023/12/19 01:08:24;;;;;;;47.77;12.37;;;-0.10;99.90;;;;;;5049801;28;20370;-66
2023/12/19 01:10:52;;;;;;;42.77;9.47;;;-0.10;99.90;;;;;;5050213;28;20210;-65
2023/12/19 01:13:19;;;;;;;26.97;10.20;;;-0.20;99.90;;;;;;5050095;28;20688;-67
2023/12/19 01:15:46;;;;;;;26.73;10.53;;;-0.30;99.90;;;;;;5048410;28;20200;-66
2023/12/19 01:18:13;;;;;;;22.13;8.23;;;-0.40;99.90;;;;;;5051018;28;20279;-66
2023/12/19 01:20:40;;;;;;;33.87;9.23;;;-0.40;99.90;;;;;;5070137;28;20201;-66
2023/12/19 01:23:07;;;;;;;23.47;8.33;;;-0.40;99.90;;;;;;5070067;28;20256;-66
2023/12/19 01:25:34;;;;;;;35.17;9.30;;;-0.30;99.90;;;;;;5069911;28;20221;-67
2023/12/19 01:28:03;;;;;;;32.47;8.63;;;-0.40;99.90;;;;;;5043669;28;20295;-66
2023/12/19 01:30:30;;;;;;;12.20;8.07;;;-0.40;99.90;;;;;;5053983;28;20238;-65
2023/12/19 01:32:57;;;;;;;8.87;6.77;;;-0.40;99.90;;;;;;5053930;28;20214;-66
2023/12/19 01:35:24;;;;;;;15.43;6.90;;;-0.40;99.90;;;;;;5072004;28;20195;-66
2023/12/19 01:37:51;;;;;;;11.43;7.17;;;-0.40;99.90;;;;;;5073330;28;20847;-66
2023/12/19 01:40:18;;;;;;;8.47;7.23;;;-0.50;99.90;;;;;;5051742;28;20201;-66
2023/12/19 01:42:45;;;;;;;7.07;6.20;;;-0.50;99.90;;;;;;5053911;28;20201;-67
2023/12/19 01:45:14;;;;;;;6.90;5.80;;;-0.50;99.90;;;;;;5053903;28;20229;-65
2023/12/19 01:47:44;;;;;;;10.13;7.37;;;-0.40;99.90;;;;;;5071256;28;20220;-67
2023/12/19 01:50:12;;;;;;;8.90;7.57;;;-0.30;99.90;;;;;;5072996;28;20199;-67
2023/12/19 01:52:42;;;;;;;7.73;6.30;;;-0.20;99.90;;;;;;5070264;28;20205;-67
2023/12/19 01:55:11;;;;;;;8.50;7.07;;;-0.20;99.90;;;;;;5072299;28;20405;-66
2023/12/19 01:57:38;;;;;;;13.13;8.30;;;-0.20;99.90;;;;;;5037450;28;20838;-66
2023/12/19 02:00:07;;;;;;;8.67;6.87;;;-0.20;99.90;;;;;;5033431;28;20632;-67
2023/12/19 02:02:36;;;;;;;9.07;6.87;;;-0.20;99.90;;;;;;5033457;28;20616;-66
2023/12/19 02:05:03;;;;;;;7.93;7.07;;;-0.20;99.90;;;;;;5042738;28;20718;-67
2023/12/19 02:07:30;;;;;;;7.40;6.17;;;-0.10;99.90;;;;;;5046390;28;20300;-66
2023/12/19 02:09:57;;;;;;;14.13;7.90;;;-0.20;99.90;;;;;;5053372;28;20255;-67
2023/12/19 02:12:24;;;;;;;16.83;7.53;;;-0.30;99.90;;;;;;5053983;28;20238;-66
2023/12/19 02:14:51;;;;;;;11.90;7.40;;;-0.30;99.90;;;;;;5058397;28;20614;-66
2023/12/19 02:17:19;;;;;;;18.40;6.97;;;-0.30;99.90;;;;;;5060664;28;20236;-66
2023/12/19 02:19:48;;;;;;;10.10;7.97;;;-0.30;99.90;;;;;;5048060;28;20202;-66
2023/12/19 02:22:16;;;;;;;16.03;8.23;;;-0.30;99.90;;;;;;5053023;28;20268;-66
2023/12/19 02:24:44;;;;;;;7.47;6.77;;;-0.30;99.90;;;;;;5052473;28;20243;-67
2023/12/19 02:27:12;;;;;;;8.37;7.03;;;-0.30;99.90;;;;;;5039199;28;20233;-66
2023/12/19 02:29:39;;;;;;;30.33;8.07;;;-0.30;99.90;;;;;;5031920;28;20669;-66
2023/12/19 02:32:06;;;;;;;23.00;10.53;;;-0.20;99.90;;;;;;5051284;28;20670;-66
2023/12/19 02:34:34;;;;;;;40.03;10.93;;;-0.30;99.90;;;;;;5052838;28;20272;-66
2023/12/19 02:37:01;;;;;;;19.20;7.57;;;-0.30;99.90;;;;;;5058699;28;20285;-67
2023/12/19 02:39:28;;;;;;;11.70;7.97;;;-0.30;99.90;;;;;;5059293;28;20205;-66
2023/12/19 02:41:59;;;;;;;9.40;7.77;;;-0.40;99.90;;;;;;5050696;28;20197;-66
2023/12/19 02:44:26;;;;;;;43.00;8.60;;;-0.30;99.90;;;;;;5052282;28;20269;-66
2023/12/19 02:46:53;;;;;;;36.17;8.67;;;-0.40;99.90;;;;;;5052273;28;20236;-66
2023/12/19 02:49:20;;;;;;;10.60;7.67;;;-0.50;99.90;;;;;;5051730;28;20289;-66
2023/12/19 02:51:52;;;;;;;11.93;7.30;;;-0.50;99.90;;;;;;5067165;28;20571;-66
2023/12/19 02:54:19;;;;;;;10.83;6.87;;;-0.50;99.90;;;;;;5060105;28;20199;-66
2023/12/19 02:56:46;;;;;;;12.67;6.93;;;-0.50;99.90;;;;;;5049609;28;20315;-66
2023/12/19 02:59:14;;;;;;;28.03;8.87;;;-0.50;99.90;;;;;;5050677;28;20252;-66
2023/12/19 03:01:46;;;;;;;12.23;7.00;;;-0.50;99.90;;;;;;5052630;28;20204;-66
2023/12/19 03:04:13;;;;;;;11.80;7.13;;;-0.50;99.90;;;;;;5052559;28;20726;-67
2023/12/19 03:06:40;;;;;;;14.00;7.57;;;-0.50;99.90;;;;;;5048097;28;20231;-66
2023/12/19 03:09:07;;;;;;;32.00;8.53;;;-0.50;99.90;;;;;;5051907;28;20268;-66
2023/12/19 03:11:38;;;;;;;7.17;6.27;;;-0.60;99.90;;;;;;5052411;28;20219;-66
2023/12/19 03:14:05;;;;;;;19.47;7.37;;;-0.60;99.90;;;;;;5053406;28;20245;-66
2023/12/19 03:16:33;;;;;;;7.07;6.37;;;-0.50;99.90;;;;;;5051904;28;20253;-67
2023/12/19 03:19:00;;;;;;;8.40;6.57;;;-0.50;99.90;;;;;;5050206;28;20290;-66
2023/12/19 03:21:27;;;;;;;13.57;7.70;;;-0.50;99.90;;;;;;5052453;28;20200;-66
2023/12/19 03:23:54;;;;;;;6.87;6.17;;;-0.50;99.90;;;;;;5052366;28;20204;-66
2023/12/19 03:26:21;;;;;;;16.43;7.60;;;-0.50;99.90;;;;;;5052457;28;20222;-66
2023/12/19 03:28:48;;;;;;;8.07;6.90;;;-0.60;99.90;;;;;;5070624;28;20196;-67
2023/12/19 03:31:15;;;;;;;47.03;8.67;;;-0.40;99.90;;;;;;5072455;28;20268;-66
2023/12/19 03:33:43;;;;;;;22.27;6.80;;;-0.40;99.90;;;;;;5048987;28;20206;-67
2023/12/19 03:36:11;;;;;;;13.03;6.33;;;-0.50;99.90;;;;;;5052223;28;20196;-67
2023/12/19 03:38:38;;;;;;;16.50;7.30;;;-0.60;99.90;;;;;;5051799;28;20250;-66
2023/12/19 03:41:06;;;;;;;22.13;6.00;;;-0.60;99.90;;;;;;5052593;28;20238;-67
2023/12/19 03:43:34;;;;;;;25.60;6.87;;;-0.60;99.90;;;;;;5052281;28;20256;-66
2023/12/19 03:46:04;;;;;;;29.27;7.37;;;-0.70;99.90;;;;;;5044528;28;20258;-67
2023/12/19 03:48:31;;;;;;;13.40;6.60;;;-0.60;99.90;;;;;;5051327;28;20378;-66
2023/12/19 03:50:59;;;;;;;9.37;7.00;;;-0.50;99.90;;;;;;5053140;28;20252;-66
2023/12/19 03:53:26;;;;;;;9.63;7.60;;;-0.50;99.90;;;;;;5071782;28;20670;-67
2023/12/19 03:55:53;;;;;;;22.57;8.77;;;-0.50;99.90;;;;;;5071634;28;20203;-66
2023/12/19 03:58:20;;;;;;;23.90;8.90;;;-0.50;99.90;;;;;;5047389;28;20223;-66
2023/12/19 04:00:48;;;;;;;20.23;9.80;;;-0.40;99.90;;;;;;5050271;28;20204;-66
2023/12/19 04:03:15;;;;;;;24.90;9.53;;;-0.40;99.90;;;;;;5051644;28;20224;-67
2023/12/19 04:05:42;;;;;;;42.27;10.57;;;-0.40;99.90;;;;;;5051283;28;20220;-66
2023/12/19 04:08:10;;;;;;;21.13;9.17;;;-0.30;99.90;;;;;;5063746;28;20213;-67
2023/12/19 04:10:37;;;;;;;11.53;8.43;;;-0.30;99.90;;;;;;5045509;28;20212;-66
2023/12/19 04:13:04;;;;;;;25.07;10.13;;;-0.30;99.90;;;;;;5051358;28;20197;-66
2023/12/19 04:15:31;;;;;;;9.27;7.50;;;-0.20;99.90;;;;;;5051386;28;20252;-66
2023/12/19 04:17:58;;;;;;;8.47;7.37;;;-0.20;99.90;;;;;;5060554;28;20292;-66
2023/12/19 04:20:25;;;;;;;12.23;8.23;;;-0.20;99.90;;;;;;5071236;28;20715;-71
2023/12/19 04:22:52;;;;;;;13.53;7.50;;;-0.20;99.90;;;;;;5052001;28;20208;-66
2023/12/19 04:25:21;;;;;;;11.13;7.50;;;-0.20;99.90;;;;;;5049734;28;20199;-66
2023/12/19 04:27:47;;;;;;;29.43;8.57;;;-0.20;99.90;;;;;;5050581;28;20598;-66
2023/12/19 04:30:15;;;;;;;26.67;8.70;;;-0.10;99.90;;;;;;5051164;28;20294;-67
2023/12/19 04:32:42;;;;;;;20.43;7.20;;;-0.20;99.90;;;;;;5057234;28;20215;-66
2023/12/19 04:35:09;;;;;;;26.67;7.57;;;-0.30;99.90;;;;;;5050068;28;20201;-66
2023/12/19 04:37:36;;;;;;;16.27;6.43;;;-0.30;99.90;;;;;;5051426;28;20220;-66
2023/12/19 04:40:04;;;;;;;21.03;7.30;;;-0.40;99.90;;;;;;5050968;28;20204;-66
2023/12/19 04:42:32;;;;;;;29.87;7.47;;;-0.30;99.90;;;;;;5050003;28;20228;-66
2023/12/19 04:44:59;;;;;;;7.03;6.30;;;-0.40;99.90;;;;;;5054746;28;20192;-67
2023/12/19 04:47:26;;;;;;;8.60;7.07;;;-0.40;99.90;;;;;;5050749;28;20293;-66
2023/12/19 04:49:53;;;;;;;16.60;7.07;;;-0.30;99.90;;;;;;5042026;28;20198;-66
2023/12/19 04:52:20;;;;;;;11.83;8.00;;;-0.30;99.90;;;;;;5044107;28;20247;-66
2023/12/19 04:54:47;;;;;;;49.03;9.10;;;-0.30;99.90;;;;;;5040923;28;20205;-66
2023/12/19 04:57:14;;;;;;;13.07;6.27;;;-0.40;99.90;;;;;;5049577;28;20210;-67
2023/12/19 04:59:43;;;;;;;24.03;7.27;;;-0.40;99.90;;;;;;5050248;28;20209;-66
2023/12/19 05:02:10;;;;;;;14.83;7.50;;;-0.40;99.90;;;;;;5039016;28;20675;-66
2023/12/19 05:04:37;;;;;;;9.20;7.40;;;-0.40;99.90;;;;;;5048898;28;20202;-66
2023/12/19 05:07:04;;;;;;;7.97;6.93;;;-0.30;99.90;;;;;;5050109;28;20819;-66
2023/12/19 05:09:31;;;;;;;16.40;7.23;;;-0.30;99.90;;;;;;5050111;28;20605;-66
2023/12/19 05:11:58;;;;;;;44.33;8.47;;;-0.30;99.90;;;;;;5050509;28;20234;-66
2023/12/19 05:14:25;;;;;;;11.50;8.10;;;-0.30;99.90;;;;;;5042998;28;20269;-66
2023/12/19 05:16:53;;;;;;;10.83;7.87;;;-0.30;99.90;;;;;;5046669;28;20271;-67
2023/12/19 05:19:20;;;;;;;19.30;8.73;;;-0.30;99.90;;;;;;5040415;28;20209;-66
2023/12/19 05:21:47;;;;;;;16.13;8.47;;;-0.30;99.90;;;;;;5050371;28;20214;-66
2023/12/19 05:24:14;;;;;;;16.07;9.20;;;-0.30;99.90;;;;;;5049463;28;20204;-66
2023/12/19 05:26:41;;;;;;;10.60;8.40;;;-0.30;99.90;;;;;;5045133;28;20277;-66
2023/12/19 05:29:08;;;;;;;24.27;9.10;;;-0.30;99.90;;;;;;5049704;28;20207;-66
2023/12/19 05:31:35;;;;;;;16.53;8.93;;;-0.40;99.90;;;;;;5041266;28;20351;-67
2023/12/19 05:34:04;;;;;;;10.00;7.73;;;-0.40;99.90;;;;;;5048065;28;20213;-66
2023/12/19 05:36:33;;;;;;;13.53;8.50;;;-0.30;99.90;;;;;;5049878;28;20249;-66
2023/12/19 05:39:00;;;;;;;17.63;10.07;;;-0.30;99.90;;;;;;5049731;28;20203;-67
2023/12/19 05:41:27;;;;;;;14.53;8.53;;;-0.30;99.90;;;;;;5047152;28;20251;-65
2023/12/19 05:43:59;;;;;;;32.33;14.43;;;-0.40;99.90;;;;;;5046519;28;20258;-66
2023/12/19 05:46:27;;;;;;;24.17;12.33;;;-0.40;99.90;;;;;;5050055;28;20313;-66
2023/12/19 05:48:54;;;;;;;18.27;10.83;;;-0.50;99.90;;;;;;5048836;28;20265;-66
2023/12/19 05:51:23;;;;;;;36.60;11.40;;;-0.40;99.90;;;;;;5049987;28;20643;-66
2023/12/19 05:53:50;;;;;;;29.27;11.33;;;-0.40;99.90;;;;;;5049904;28;20209;-65
2023/12/19 05:56:17;;;;;;;14.57;9.60;;;-0.40;99.90;;;;;;5049880;28;20575;-66
2023/12/19 05:58:46;;;;;;;24.27;9.90;;;-0.30;99.90;;;;;;5044808;28;20232;-66
2023/12/19 06:01:13;;;;;;;17.23;8.67;;;-0.30;99.90;;;;;;5047338;28;20583;-66
2023/12/19 06:03:40;;;;;;;15.13;10.40;;;-0.30;99.90;;;;;;5049298;28;20203;-67
2023/12/19 06:06:07;;;;;;;33.27;10.60;;;-0.30;99.90;;;;;;5049572;28;20208;-66
2023/12/19 06:08:36;;;;;;;9.67;7.77;;;-0.30;99.90;;;;;;5049184;28;20228;-65
2023/12/19 06:11:03;;;;;;;10.07;8.53;;;-0.30;99.90;;;;;;5048044;28;21040;-66
2023/12/19 06:13:30;;;;;;;11.53;8.13;;;-0.40;99.90;;;;;;5050268;28;20290;-66
2023/12/19 06:15:57;;;;;;;15.93;8.13;;;-0.30;99.90;;;;;;5047237;28;20288;-66
2023/12/19 06:18:24;;;;;;;9.10;6.90;;;-0.30;99.90;;;;;;5044082;28;20779;-66
2023/12/19 06:20:52;;;;;;;11.23;7.37;;;-0.30;99.90;;;;;;5051360;28;20202;-67
2023/12/19 06:23:19;;;;;;;10.30;7.70;;;-0.20;99.90;;;;;;5053447;28;20208;-68
2023/12/19 06:25:47;;;;;;;11.27;7.77;;;-0.20;99.90;;;;;;5053240;28;20204;-66
2023/12/19 06:28:16;;;;;;;13.27;8.33;;;-0.20;99.90;;;;;;5052712;28;20238;-66
2023/12/19 06:30:43;;;;;;;19.30;8.03;;;-0.20;99.90;;;;;;5052395;28;20212;-67
2023/12/19 06:33:10;;;;;;;8.40;7.30;;;-0.20;99.90;;;;;;5045557;28;20207;-67
2023/12/19 06:35:41;;;;;;;10.43;7.00;;;-0.30;99.90;;;;;;5052939;28;20276;-67
2023/12/19 06:38:08;;;;;;;8.87;6.83;;;-0.30;99.90;;;;;;5052321;28;20274;-66
2023/12/19 06:40:36;;;;;;;11.37;7.97;;;-0.30;99.90;;;;;;5053054;28;20265;-66
2023/12/19 06:43:05;;;;;;;9.93;8.00;;;-0.30;99.90;;;;;;5051755;28;20210;-66
2023/12/19 06:45:33;;;;;;;12.60;7.47;;;-0.30;99.90;;;;;;5046286;28;20743;-66
2023/12/19 06:48:02;;;;;;;18.83;7.33;;;-0.30;99.90;;;;;;5045127;28;20315;-66
2023/12/19 06:50:29;;;;;;;18.37;8.07;;;-0.40;99.90;;;;;;5044177;28;20204;-66
2023/12/19 06:52:56;;;;;;;10.17;8.03;;;-0.40;99.90;;;;;;5087665;22;20230;-62
2023/12/19 06:55:24;;;;;;;16.90;7.30;;;-0.50;99.90;;;;;;5069744;28;20626;-61
2023/12/19 06:57:52;;;;;;;11.13;7.23;;;-0.60;99.90;;;;;;5072394;28;20199;-61
2023/12/19 07:00:20;;;;;;;35.30;9.87;;;-0.50;99.90;;;;;;5073394;28;20246;-62
2023/12/19 07:02:47;;;;;;;34.40;8.90;;;-0.60;99.90;;;;;;5061117;28;20223;-62
2023/12/19 07:05:14;;;;;;;22.10;9.13;;;-0.50;99.90;;;;;;5062076;28;20244;-62
2023/12/19 07:07:41;;;;;;;21.53;7.60;;;-0.50;99.90;;;;;;5053111;28;20225;-64
2023/12/19 07:10:10;;;;;;;23.60;7.20;;;-0.50;99.90;;;;;;5053351;28;20252;-61
2023/12/19 07:12:39;;;;;;;20.53;7.67;;;-0.50;99.90;;;;;;5052997;28;20227;-62
2023/12/19 07:15:07;;;;;;;9.50;6.73;;;-0.60;99.90;;;;;;5054878;28;20584;-62
2023/12/19 07:17:35;;;;;;;8.13;6.23;;;-0.60;99.90;;;;;;5059377;28;20208;-62
2023/12/19 07:20:03;;;;;;;8.97;6.90;;;-0.60;99.90;;;;;;5050487;28;20208;-62
2023/12/19 07:22:30;;;;;;;33.20;9.53;;;-0.70;99.90;;;;;;5053045;28;20236;-62
2023/12/19 07:24:57;;;;;;;40.60;9.17;;;-0.70;99.90;;;;;;5051997;28;20218;-61
2023/12/19 07:27:24;;;;;;;23.13;10.57;;;-0.70;99.90;;;;;;5050502;28;20219;-62
2023/12/19 07:29:51;;;;;;;22.20;8.43;;;-0.80;99.90;;;;;;5048659;28;20224;-62
2023/12/19 07:32:19;;;;;;;11.00;7.37;;;-0.70;99.90;;;;;;5051342;28;20763;-62
2023/12/19 07:34:47;;;;;;;63.67;11.50;;;-0.70;99.90;;;;;;5052030;28;20768;-61
2023/12/19 07:37:14;;;;;;;40.13;8.60;;;-0.80;99.90;;;;;;5045561;28;20202;-62
2023/12/19 07:39:41;;;;;;;70.67;11.03;;;-0.90;99.90;;;;;;5049618;28;20205;-62
2023/12/19 07:42:08;;;;;;;32.00;8.00;;;-1.10;99.90;;;;;;5048992;28;20219;-62
2023/12/19 07:44:35;;;;;;;36.10;7.73;;;-1.30;99.90;;;;;;5042551;28;20290;-62
2023/12/19 07:47:02;;;;;;;33.23;7.40;;;-1.30;99.90;;;;;;5046256;28;20219;-62
2023/12/19 07:49:29;;;;;;;11.23;6.70;;;-1.30;99.90;;;;;;5050044;28;20210;-62
2023/12/19 07:51:59;;;;;;;36.63;6.57;;;-1.40;99.90;;;;;;5051067;28;20298;-61
2023/12/19 07:54:26;;;;;;;12.47;5.47;;;-1.60;99.90;;;;;;5049394;28;20211;-61
2023/12/19 07:56:53;;;;;;;9.27;4.93;;;-1.60;99.90;;;;;;5048263;28;20254;-61
2023/12/19 07:59:21;;;;;;;7.87;4.73;;;-1.60;99.90;;;;;;5046586;28;20212;-61
2023/12/19 08:01:48;;;;;;;14.97;6.90;;;-1.50;99.90;;;;;;5049477;28;20228;-61
2023/12/19 08:04:15;;;;;;;23.97;5.87;;;-1.40;99.90;;;;;;5051730;28;20298;-61
2023/12/19 08:06:43;;;;;;;11.40;5.73;;;-1.50;99.90;;;;;;5052188;28;20258;-62
2023/12/19 08:09:14;;;;;;;13.00;5.87;;;-1.50;99.90;;;;;;5051973;28;20229;-62
2023/12/19 08:11:41;;;;;;;32.90;6.57;;;-1.40;99.90;;;;;;5051857;28;20205;-62
2023/12/19 08:14:07;;;;;;;10.07;6.40;;;-1.30;99.90;;;;;;5052000;28;20208;-62
2023/12/19 08:16:41;;;;;;;6.93;5.77;;;-1.30;99.90;;;;;;5052114;28;20204;-62
2023/12/19 08:19:08;;;;;;;17.87;6.87;;;-1.30;99.90;;;;;;5046360;28;20212;-61
2023/12/19 08:21:35;;;;;;;8.40;6.07;;;-1.40;99.90;;;;;;5052022;28;20208;-62
2023/12/19 08:24:03;;;;;;;7.37;6.63;;;-1.30;99.90;;;;;;5051797;28;20211;-62
2023/12/19 08:26:31;;;;;;;8.30;6.27;;;-1.30;99.90;;;;;;5051803;28;20204;-62
2023/12/19 08:28:58;;;;;;;10.00;7.07;;;-1.10;99.90;;;;;;5051252;28;20277;-62
2023/12/19 08:31:25;;;;;;;9.50;6.23;;;-1.00;99.90;;;;;;5051523;28;20254;-62
2023/12/19 08:33:52;;;;;;;8.67;6.93;;;-0.90;99.90;;;;;;5051552;28;20211;-62
2023/12/19 08:36:19;;;;;;;6.80;6.10;;;-0.70;99.90;;;;;;5052090;28;20224;-62
2023/12/19 08:38:49;;;;;;;9.23;8.03;;;-0.60;99.90;;;;;;5051831;28;20210;-62
2023/12/19 08:41:16;;;;;;;11.67;7.17;;;-0.40;99.90;;;;;;5046570;28;20207;-63
2023/12/19 08:43:45;;;;;;;9.17;6.87;;;-0.20;99.90;;;;;;5047813;28;20565;-63
2023/12/19 08:46:12;;;;;;;7.57;6.87;;;0.10;99.90;;;;;;5050245;28;20664;-62
2023/12/19 08:48:39;;;;;;;7.80;6.63;;;0.20;99.90;;;;;;5048926;28;20852;-63
2023/12/19 08:51:06;;;;;;;8.53;6.67;;;0.10;99.90;;;;;;5069777;28;20353;-63
2023/12/19 08:53:33;;;;;;;9.83;7.33;;;0.20;99.90;;;;;;5071573;28;20233;-63
2023/12/19 08:56:00;;;;;;;7.40;6.53;;;0.40;99.90;;;;;;5071741;28;20201;-62
2023/12/19 08:58:27;;;;;;;8.60;7.53;;;0.60;99.90;;;;;;5066602;28;20195;-63
2023/12/19 09:00:55;;;;;;;8.10;7.27;;;1.10;99.90;;;;;;5067570;28;20692;-63
2023/12/19 09:03:23;;;;;;;11.03;8.07;;;1.40;99.90;;;;;;5058542;28;20715;-63
2023/12/19 09:05:50;;;;;;;8.53;7.20;;;1.80;99.90;;;;;;5071611;28;20203;-63
2023/12/19 09:08:17;;;;;;;6.60;4.87;;;2.20;99.90;;;;;;5067361;28;20318;-63
2023/12/19 09:10:45;;;;;;;7.17;6.47;;;2.20;99.90;;;;;;5066067;28;20558;-63
2023/12/19 09:13:12;;;;;;;6.13;5.53;;;2.20;99.90;;;;;;5071320;28;20218;-63
2023/12/19 09:15:39;;;;;;;6.37;5.87;;;2.30;99.90;;;;;;5055696;28;20260;-63
2023/12/19 09:18:07;;;;;;;6.63;6.00;;;2.40;99.90;;;;;;5055861;28;20734;-62
2023/12/19 09:20:34;;;;;;;6.73;6.10;;;2.50;99.90;;;;;;5031850;28;20265;-62
2023/12/19 09:23:01;;;;;;;6.87;5.90;;;2.40;99.90;;;;;;5031615;28;20220;-63
2023/12/19 09:25:29;;;;;;;6.13;5.63;;;2.40;99.90;;;;;;5031553;28;20740;-63
2023/12/19 09:27:56;;;;;;;10.47;6.80;;;2.40;99.90;;;;;;5031086;28;20595;-63
2023/12/19 09:30:23;;;;;;;8.43;6.27;;;2.50;99.90;;;;;;5031733;28;20215;-63
2023/12/19 09:32:50;;;;;;;8.63;6.17;;;2.60;99.90;;;;;;5062233;28;20219;-63
2023/12/19 09:35:19;;;;;;;6.90;6.30;;;2.60;99.90;;;;;;5071630;28;20263;-63
2023/12/19 09:37:46;;;;;;;7.00;6.17;;;2.60;99.90;;;;;;5059395;28;20202;-63
2023/12/19 09:40:15;;;;;;;7.43;5.83;;;2.60;99.90;;;;;;5050027;28;20231;-62
2023/12/19 09:42:43;;;;;;;6.83;6.13;;;2.60;99.90;;;;;;5050979;28;20223;-63
2023/12/19 09:45:12;;;;;;;5.93;5.43;;;2.60;99.90;;;;;;5049011;28;20553;-62
2023/12/19 09:47:40;;;;;;;15.47;9.07;;;2.50;99.90;;;;;;5052036;28;20227;-63
2023/12/19 09:50:13;;;;;;;12.27;8.60;;;2.60;99.90;;;;;;5054850;28;20227;-63
2023/12/19 09:52:42;;;;;;;12.63;9.23;;;2.60;99.90;;;;;;5063620;28;20285;-63
2023/12/19 09:55:11;;;;;;;11.27;8.67;;;2.60;99.90;;;;;;5058283;28;20285;-63
2023/12/19 09:57:38;;;;;;;14.77;8.70;;;2.70;99.90;;;;;;5054649;28;20781;-63
2023/12/19 10:00:08;;;;;;;15.90;9.30;;;2.80;99.90;;;;;;5059260;28;20208;-63
2023/12/19 10:02:36;;;;;;;15.27;10.73;;;2.90;99.90;;;;;;5054770;28;20306;-63
2023/12/19 10:05:04;;;;;;;14.67;10.23;;;3.10;99.90;;;;;;5063353;28;20203;-63
2023/12/19 10:07:31;;;;;;;16.40;9.53;;;3.10;99.90;;;;;;5050801;28;20219;-63
2023/12/19 10:10:00;;;;;;;11.97;7.90;;;3.20;99.90;;;;;;5053974;28;20308;-63
2023/12/19 10:12:27;;;;;;;12.57;7.93;;;3.30;99.90;;;;;;5047328;28;20278;-62
2023/12/19 10:15:07;;;;;;;14.07;8.53;;;3.40;99.90;;;;;;5052560;28;20243;-63
2023/12/19 10:17:33;;;;;;;12.97;10.33;;;3.30;99.90;;;;;;5053300;28;20205;-63
2023/12/19 10:20:10;;;;;;;12.53;9.20;;;3.20;99.90;;;;;;5054570;28;20663;-63
2023/12/19 10:22:38;;;;;;;14.07;10.10;;;3.00;99.90;;;;;;5059850;28;20250;-63
2023/12/19 10:25:09;;;;;;;15.77;8.73;;;2.80;99.90;;;;;;5057487;28;20200;-63
2023/12/19 10:27:35;;;;;;;15.60;8.77;;;2.70;99.90;;;;;;5049404;28;20222;-63
2023/12/19 10:30:17;;;;;;;12.57;8.20;;;2.70;99.90;;;;;;5053709;28;20203;-63
2023/12/19 10:32:46;;;;;;;13.47;8.50;;;2.70;99.90;;;;;;5056553;28;20218;-63
2023/12/19 10:35:13;;;;;;;12.10;8.63;;;2.80;99.90;;;;;;5054273;28;20204;-63
2023/12/19 10:37:41;;;;;;;10.30;8.33;;;2.70;99.90;;;;;;5054043;28;20291;-63
2023/12/19 10:40:14;;;;;;;10.27;7.73;;;2.60;99.90;;;;;;5053867;28;20206;-63
2023/12/19 10:42:41;;;;;;;9.87;7.10;;;2.60;99.90;;;;;;5053762;28;20651;-63
2023/12/19 10:45:09;;;;;;;9.60;6.57;;;2.70;99.90;;;;;;5052079;28;20207;-63
2023/12/19 10:47:36;;;;;;;8.70;7.03;;;2.70;99.90;;;;;;5059885;28;20207;-62
2023/12/19 10:50:03;;;;;;;10.87;6.93;;;2.70;99.90;;;;;;5047827;28;20199;-63
2023/12/19 10:52:32;;;;;;;11.17;7.13;;;2.60;99.90;;;;;;5053317;28;20330;-63
2023/12/19 10:55:05;;;;;;;12.07;7.53;;;2.60;99.90;;;;;;5053692;28;20207;-63
2023/12/19 10:57:37;;;;;;;10.17;8.30;;;2.50;99.90;;;;;;5053584;28;20199;-63
2023/12/19 11:00:09;;;;;;;10.83;7.90;;;2.50;99.90;;;;;;5052338;28;20733;-63
2023/12/19 11:02:42;;;;;;;12.43;7.40;;;2.50;99.90;;;;;;5053502;28;20232;-63
2023/12/19 11:05:17;;;;;;;9.53;7.60;;;2.60;99.90;;;;;;5057552;28;20579;-63
2023/12/19 11:07:45;;;;;;;9.70;7.67;;;2.70;99.90;;;;;;5052022;28;20207;-63
2023/12/19 11:10:14;;;;;;;15.43;9.13;;;2.80;99.90;;;;;;5053534;28;20211;-63
2023/12/19 11:12:43;;;;;;;9.70;6.93;;;2.80;99.90;;;;;;5050156;28;20234;-62
2023/12/19 11:15:10;;;;;;;14.83;7.13;;;2.80;99.90;;;;;;5061179;28;20707;-62
2023/12/19 11:17:46;;;;;;;10.00;6.33;;;2.90;99.90;;;;;;5070575;28;20249;-62
2023/12/19 11:20:20;;;;;;;6.80;5.93;;;2.80;99.90;;;;;;5065119;28;20202;-61
2023/12/19 11:22:58;;;;;;;7.43;6.67;;;3.00;99.90;;;;;;5048968;28;20379;-62
2023/12/19 11:25:36;;;;;;;9.37;6.97;;;3.00;99.90;;;;;;5045470;28;20283;-61
2023/12/19 11:28:06;;;;;;;8.00;6.93;;;2.90;99.90;;;;;;5044894;28;20289;-62
2023/12/19 11:30:37;;;;;;;9.77;6.87;;;2.90;99.90;;;;;;5052875;28;20617;-62
2023/12/19 11:33:04;;;;;;;6.47;5.87;;;3.00;99.90;;;;;;5052778;28;20223;-62
2023/12/19 11:35:32;;;;;;;10.97;6.63;;;3.00;99.90;;;;;;5053303;28;20295;-62
2023/12/19 11:38:17;;;;;;;9.50;7.87;;;3.00;99.90;;;;;;5052723;28;20204;-62
2023/12/19 11:40:49;;;;;;;8.47;7.10;;;3.00;99.90;;;;;;5047285;28;20202;-62
2023/12/19 11:43:46;;;;;;;9.70;7.93;;;3.10;99.90;;;;;;5060156;28;20261;-62
2023/12/19 11:46:20;;;;;;;8.80;7.80;;;3.20;99.90;;;;;;5050083;28;20195;-62
2023/12/19 11:48:50;;;;;;;10.87;7.97;;;3.20;99.90;;;;;;5052139;28;20241;-62
2023/12/19 11:51:46;;;;;;;12.93;10.07;;;3.30;99.90;;;;;;5060857;28;20747;-62
2023/12/19 11:54:13;;;;;;;11.87;9.70;;;3.30;99.90;;;;;;5052676;28;20758;-62
2023/12/19 11:56:41;;;;;;;12.37;9.83;;;3.20;99.90;;;;;;5050417;28;20659;-62
2023/12/19 11:59:09;;;;;;;13.07;9.97;;;3.20;99.90;;;;;;5051445;28;20196;-62
2023/12/19 12:01:41;;;;;;;14.00;10.50;;;3.20;99.90;;;;;;5045544;28;20242;-62
2023/12/19 12:04:10;;;;;;;12.10;9.60;;;3.30;99.90;;;;;;5048476;28;20790;-62
2023/12/19 12:06:37;;;;;;;10.60;9.57;;;3.20;99.90;;;;;;5052539;28;20281;-62
2023/12/19 12:09:05;;;;;;;12.80;11.50;;;3.10;99.90;;;;;;5050099;28;20288;-62
2023/12/19 12:11:46;;;;;;;15.60;11.73;;;3.20;99.90;;;;;;5052057;28;20584;-62
2023/12/19 12:14:13;;;;;;;14.13;10.33;;;3.30;99.90;;;;;;5046201;28;20258;-62
2023/12/19 12:16:42;;;;;;;14.32;11.20;;;3.30;99.90;;;;;;5043991;28;20463;-68
2023/12/19 12:19:11;;;;;;;13.97;12.13;;;3.40;99.90;;;;;;5049871;28;20236;-69
2023/12/19 12:21:44;;;;;;;15.30;11.23;;;3.50;99.90;;;;;;5051482;28;20293;-67
2023/12/19 12:24:19;;;;;;;14.47;11.23;;;3.50;99.90;;;;;;5051327;28;20641;-68
2023/12/19 12:26:46;;;;;;;14.20;10.53;;;3.50;99.90;;;;;;5051881;28;20199;-66
2023/12/19 12:29:13;;;;;;;12.50;10.87;;;3.50;99.90;;;;;;5050804;28;20224;-66
2023/12/19 12:31:42;;;;;;;13.43;11.07;;;3.50;99.90;;;;;;5051579;28;20212;-67
2023/12/19 12:34:09;;;;;;;11.97;10.07;;;3.60;99.90;;;;;;5044385;28;20196;-70
2023/12/19 12:36:36;;;;;;;13.97;10.50;;;3.70;99.90;;;;;;5051608;28;20199;-71
2023/12/19 12:39:04;;;;;;;12.73;10.97;;;3.70;99.90;;;;;;5048144;28;20208;-66
2023/12/19 12:41:32;;;;;;;11.30;9.17;;;3.80;99.90;;;;;;5051285;28;20204;-74
2023/12/19 12:43:59;;;;;;;11.47;9.70;;;3.90;99.90;;;;;;5051693;28;20204;-69
2023/12/19 12:46:26;;;;;;;13.23;10.47;;;3.90;99.90;;;;;;5051448;28;20215;-72